Time;durP1;ratioP1;P1;durP2;ratioP2;P2;SDS_P1;SDS_P2;PMS_P1;PMS_P2;Temp;Humidity;BMP_temperature;BMP_pressure;BME280_temperature;BME280_humidity;BME280_pressure;Samples;Min_cycle;Max_cycle;Signal;HPM_P1;HPM_P2
2021/04/05 00:00:41;;;;;;;24.63;10.15;;;;;;;3.12;62.76;99935.09;1726447;83;21228;-74
2021/04/05 00:03:09;;;;;;;20.57;9.13;;;;;;;3.11;62.86;99920.73;1726577;82;21136;-74
2021/04/05 00:05:38;;;;;;;22.77;9.05;;;;;;;3.06;62.94;99917.20;1726697;83;21140;-74
2021/04/05 00:08:08;;;;;;;29.85;9.63;;;;;;;3.07;63.05;99913.58;1727517;81;21213;-74
2021/04/05 00:10:42;;;;;;;17.05;8.68;;;;;;;3.07;63.14;99916.22;1729731;82;26922;-74
2021/04/05 00:13:12;;;;;;;21.07;9.70;;;;;;;3.06;63.24;99914.57;1729948;82;21118;-74
2021/04/05 00:15:39;;;;;;;20.95;9.18;;;;;;;3.07;63.33;99905.67;1729775;82;21106;-74
2021/04/05 00:18:05;;;;;;;18.50;8.80;;;;;;;3.07;63.44;99890.35;1729851;83;21153;-74
2021/04/05 00:20:37;;;;;;;24.82;10.15;;;;;;;3.10;63.57;99888.80;1729763;82;21223;-74
2021/04/05 00:23:04;;;;;;;23.55;9.80;;;;;;;3.07;63.67;99879.81;1729599;82;21133;-74
2021/04/05 00:25:32;;;;;;;22.15;9.28;;;;;;;3.05;63.79;99880.45;1729247;82;21201;-74
2021/04/05 00:28:01;;;;;;;24.95;10.28;;;;;;;3.01;63.87;99872.82;1729029;83;21118;-74
2021/04/05 00:30:32;;;;;;;22.82;10.32;;;;;;;2.97;63.95;99874.05;1729760;83;21130;-74
2021/04/05 00:32:59;;;;;;;20.62;10.45;;;;;;;2.95;64.04;99871.22;1752000;81;21172;-74
2021/04/05 00:35:29;;;;;;;25.35;11.33;;;;;;;2.91;64.11;99861.44;1729728;83;21189;-74
2021/04/05 00:37:56;;;;;;;24.57;11.22;;;;;;;2.89;64.20;99853.30;1729703;82;21209;-74
2021/04/05 00:40:27;;;;;;;22.02;10.98;;;;;;;2.85;64.25;99850.61;1729780;83;21121;-74
2021/04/05 00:42:54;;;;;;;25.68;11.63;;;;;;;2.80;64.33;99844.90;1757871;81;21120;-74
2021/04/05 00:45:20;;;;;;;23.32;11.53;;;;;;;2.75;64.42;99832.61;1678418;83;21167;-74
2021/04/05 00:47:52;;;;;;;19.73;11.00;;;;;;;2.70;64.46;99832.20;1759935;81;21151;-74
2021/04/05 00:50:44;;;;;;;22.50;12.23;;;;;;;2.65;64.52;99825.17;1726621;82;21148;-74
2021/04/05 00:53:12;;;;;;;24.85;11.12;;;;;;;2.61;64.58;99832.50;1753060;81;21127;-74
2021/04/05 00:55:40;;;;;;;23.22;10.93;;;;;;;2.58;64.66;99827.98;1753136;81;21105;-74
2021/04/05 00:58:07;;;;;;;19.75;9.75;;;;;;;2.56;64.74;99828.61;1753070;81;21476;-73
2021/04/05 01:00:42;;;;;;;25.62;10.75;;;;;;;2.55;64.83;99825.63;1757137;80;21115;-74
2021/04/05 01:03:12;;;;;;;22.95;12.20;;;;;;;2.50;64.94;99820.27;1769110;80;21147;-74
2021/04/05 01:05:39;;;;;;;;;;;;;;;2.48;65.05;99810.37;1786365;80;21526;-74
2021/04/05 01:08:06;;;;;;;24.60;11.05;;;;;;;2.47;65.17;99802.12;1781535;80;20333;-74
2021/04/05 01:10:32;;;;;;;22.82;11.55;;;;;;;2.46;65.26;99800.45;1786166;80;21207;-74
2021/04/05 01:12:59;;;;;;;22.15;11.88;;;;;;;2.44;65.34;99791.03;1786035;80;21513;-74
2021/04/05 01:15:25;;;;;;;21.73;10.55;;;;;;;2.41;65.45;99786.03;1785910;80;21128;-73
2021/04/05 01:17:52;;;;;;;20.75;11.28;;;;;;;2.39;65.54;99778.26;1786050;80;21188;-74
2021/04/05 01:20:18;;;;;;;23.07;11.33;;;;;;;2.39;65.61;99772.19;1786674;80;21136;-74
2021/04/05 01:22:46;;;;;;;25.92;11.78;;;;;;;2.37;65.73;99764.42;1753071;81;21189;-74
2021/04/05 01:25:15;;;;;;;27.85;12.18;;;;;;;2.37;65.79;99760.47;1769846;81;21594;-73
2021/04/05 01:27:41;;;;;;;30.48;12.65;;;;;;;2.37;65.89;99747.31;1767992;81;21152;-73
2021/04/05 01:30:32;;;;;;;24.98;12.03;;;;;;;2.35;65.95;99736.11;1785985;80;21143;-73
2021/04/05 01:33:16;;;;;;;26.00;11.80;;;;;;;2.34;66.02;99737.06;1785917;80;21108;-74
2021/04/05 01:36:03;;;;;;;25.65;11.45;;;;;;;2.34;66.12;99723.08;1785917;80;22066;-74
2021/04/05 01:38:40;;;;;;;24.12;11.08;;;;;;;2.35;66.19;99711.59;1785683;79;21210;-74
2021/04/05 01:41:17;;;;;;;18.87;10.65;;;;;;;2.37;66.31;99710.97;1760184;81;21573;-74
2021/04/05 01:43:43;;;;;;;22.35;10.93;;;;;;;2.36;66.47;99699.61;1786645;80;21128;-74
2021/04/05 01:46:13;;;;;;;17.90;10.55;;;;;;;2.37;66.59;99702.59;1749785;81;21111;-74
2021/04/05 01:48:39;;;;;;;19.67;10.30;;;;;;;2.38;66.70;99700.80;1785607;80;21280;-74
2021/04/05 01:51:11;;;;;;;20.43;10.38;;;;;;;2.35;66.83;99704.54;1785805;80;21147;-74
2021/04/05 01:53:38;;;;;;;19.30;10.82;;;;;;;2.35;66.92;99697.13;1750564;81;21132;-74
2021/04/05 01:56:07;;;;;;;25.30;12.13;;;;;;;2.36;67.02;99685.61;1786159;80;21569;-74
2021/04/05 01:58:38;;;;;;;20.17;10.85;;;;;;;2.36;67.12;99682.98;1719891;82;21117;-73
2021/04/05 02:01:05;;;;;;;22.93;12.30;;;;;;;2.34;67.20;99673.92;1786674;80;22143;-73
2021/04/05 02:03:31;;;;;;;21.70;11.18;;;;;;;2.34;67.28;99667.35;1785763;80;21522;-73
2021/04/05 02:06:08;;;;;;;17.73;10.03;;;;;;;2.31;67.37;99658.42;1785926;80;21199;-73
2021/04/05 02:08:36;;;;;;;21.97;11.03;;;;;;;2.31;67.45;99646.58;1783381;80;21145;-73
2021/04/05 02:11:12;;;;;;;22.37;11.20;;;;;;;2.29;67.55;99634.52;1746645;80;21105;-73
2021/04/05 02:13:39;;;;;;;24.75;10.28;;;;;;;2.27;67.63;99621.52;1774778;80;21205;-74
2021/04/05 02:16:05;;;;;;;23.40;10.85;;;;;;;2.26;67.74;99623.78;1774561;80;21132;-73
2021/04/05 02:18:32;;;;;;;20.97;10.30;;;;;;;2.26;67.87;99618.52;1774743;80;21160;-73
2021/04/05 02:20:58;;;;;;;20.70;11.35;;;;;;;2.25;67.97;99610.28;1774291;80;21136;-73
2021/04/05 02:23:25;;;;;;;25.65;10.40;;;;;;;2.23;68.08;99618.80;1774706;80;21586;-73
2021/04/05 02:26:10;;;;;;;22.15;10.82;;;;;;;2.21;68.21;99610.23;1774582;80;21128;-73
2021/04/05 02:28:45;;;;;;;23.00;10.88;;;;;;;2.19;68.32;99604.73;1771941;80;21157;-73
2021/04/05 02:31:13;;;;;;;27.75;13.22;;;;;;;2.14;68.41;99596.44;1766165;80;21152;-73
2021/04/05 02:33:41;;;;;;;19.17;10.03;;;;;;;2.12;68.50;99583.41;1757297;80;21172;-73
2021/04/05 02:36:13;;;;;;;22.85;11.18;;;;;;;2.08;68.58;99580.70;1755993;80;21113;-73
2021/04/05 02:38:42;;;;;;;20.62;10.43;;;;;;;2.08;68.64;99566.23;1774888;80;21376;-73
2021/04/05 02:41:09;;;;;;;25.25;10.58;;;;;;;2.07;68.72;99564.60;1773904;80;21128;-73
2021/04/05 02:43:35;;;;;;;26.50;11.50;;;;;;;2.06;68.79;99558.98;1771002;80;21144;-73
2021/04/05 02:46:03;;;;;;;23.80;11.18;;;;;;;2.05;68.84;99544.65;1774742;80;21120;-73
2021/04/05 02:48:30;;;;;;;20.80;10.00;;;;;;;2.04;68.90;99549.10;1747086;80;21173;-73
2021/04/05 02:50:58;;;;;;;21.48;10.00;;;;;;;2.05;69.00;99540.22;1774691;80;22230;-74
2021/04/05 02:53:24;;;;;;;22.65;10.82;;;;;;;2.09;69.02;99531.58;1774785;80;21637;-73
2021/04/05 02:55:50;;;;;;;25.08;11.65;;;;;;;2.11;69.14;99518.63;1737946;82;21156;-73
2021/04/05 02:58:17;;;;;;;27.27;10.68;;;;;;;2.15;69.21;99505.55;1719607;83;21680;-73
2021/04/05 03:00:43;;;;;;;19.42;11.15;;;;;;;2.16;69.29;99496.70;1709046;83;21535;-73
2021/04/05 03:03:10;;;;;;;23.90;12.37;;;;;;;2.15;69.38;99491.09;1709595;83;22037;-73
2021/04/05 03:05:36;;;;;;;24.20;11.18;;;;;;;2.15;69.43;99488.46;1711028;82;21165;-73
2021/04/05 03:08:02;;;;;;;25.17;10.32;;;;;;;2.13;69.46;99477.27;1719512;83;21160;-74
2021/04/05 03:10:29;;;;;;;23.07;12.00;;;;;;;2.11;69.50;99470.49;1763108;80;21169;-73
2021/04/05 03:12:58;;;;;;;24.67;11.15;;;;;;;2.11;69.52;99463.41;1727261;81;21163;-73
2021/04/05 03:15:25;;;;;;;23.00;11.20;;;;;;;2.14;69.59;99456.58;1770329;81;21452;-73
2021/04/05 03:18:01;;;;;;;25.65;11.30;;;;;;;2.13;69.60;99444.39;1769911;81;21136;-73
2021/04/05 03:20:30;;;;;;;24.95;11.53;;;;;;;2.12;69.62;99437.94;1769980;81;21129;-73
2021/04/05 03:22:56;;;;;;;25.70;10.75;;;;;;;2.09;69.63;99427.71;1770188;81;21136;-74
2021/04/05 03:25:23;;;;;;;31.27;11.48;;;;;;;2.06;69.66;99427.52;1769884;80;21149;-73
2021/04/05 03:27:50;;;;;;;27.25;10.90;;;;;;;2.08;69.70;99416.36;1765283;81;21234;-74
2021/04/05 03:30:23;;;;;;;24.52;10.48;;;;;;;2.10;69.70;99414.92;1760019;81;21127;-74
2021/04/05 03:33:00;;;;;;;20.27;10.30;;;;;;;2.10;69.74;99420.17;1728476;83;21631;-73
2021/04/05 03:35:34;;;;;;;25.62;11.93;;;;;;;2.09;69.76;99418.51;1707908;82;21162;-74
2021/04/05 03:38:00;;;;;;;20.77;11.57;;;;;;;2.08;69.81;99404.52;1709240;82;21995;-74
2021/04/05 03:40:28;;;;;;;25.30;11.78;;;;;;;2.06;69.85;99382.81;1739617;81;22065;-73
2021/04/05 03:43:33;;;;;;;26.45;10.78;;;;;;;2.07;69.91;99383.17;1739286;82;21126;-73
2021/04/05 03:45:59;;;;;;;27.05;11.97;;;;;;;2.07;69.95;99375.28;1739305;82;21138;-74
2021/04/05 03:48:46;;;;;;;26.62;10.40;;;;;;;2.07;69.95;99362.13;1739563;81;21185;-74
2021/04/05 03:51:17;;;;;;;22.37;10.63;;;;;;;2.09;69.95;99352.29;1739433;82;21122;-73
2021/04/05 03:53:54;;;;;;;26.27;10.05;;;;;;;2.11;69.99;99349.02;1739539;81;21242;-74
2021/04/05 03:56:45;;;;;;;25.90;11.00;;;;;;;2.11;69.97;99346.39;1712261;82;21166;-73
2021/04/05 03:59:26;;;;;;;30.55;10.28;;;;;;;2.10;69.95;99325.03;1739635;82;21176;-73
2021/04/05 04:01:59;;;;;;;19.77;9.65;;;;;;;2.15;69.95;99329.84;1715463;82;21142;-73
2021/04/05 04:04:33;;;;;;;25.68;8.38;;;;;;;2.17;69.97;99328.75;1757000;81;21163;-73
2021/04/05 04:07:12;;;;;;;22.33;9.00;;;;;;;2.20;69.98;99323.20;1704049;81;21282;-74
2021/04/05 04:09:33;;;;;;;28.60;10.15;;;;;;;2.24;70.04;99299.59;1769651;80;22036;-74
2021/04/05 04:11:59;;;;;;;22.82;9.65;;;;;;;2.29;70.07;99303.91;1773481;80;21120;-74
2021/04/05 04:14:26;;;;;;;20.52;9.95;;;;;;;2.32;70.08;99299.67;1773537;80;21180;-73
2021/04/05 04:16:53;;;;;;;26.65;9.90;;;;;;;2.33;70.08;99300.02;1773377;80;21136;-73
2021/04/05 04:19:19;;;;;;;27.05;9.95;;;;;;;2.34;70.07;99291.66;1773468;80;21187;-73
2021/04/05 04:21:47;;;;;;;23.00;10.53;;;;;;;2.33;70.08;99277.66;1772680;80;21135;-73
2021/04/05 04:24:15;;;;;;;26.23;9.55;;;;;;;2.33;70.04;99268.46;1772639;80;21149;-73
2021/04/05 04:26:41;;;;;;;28.77;10.48;;;;;;;2.35;70.04;99263.06;1772799;81;21140;-73
2021/04/05 04:29:19;;;;;;;20.25;9.35;;;;;;;2.38;70.02;99268.86;1772739;81;21113;-73
2021/04/05 04:31:45;;;;;;;20.92;9.43;;;;;;;2.41;70.00;99265.94;1738175;81;22128;-73
2021/04/05 04:34:17;;;;;;;20.88;9.40;;;;;;;2.46;69.99;99260.25;1772574;81;21173;-73
2021/04/05 04:36:43;;;;;;;24.02;9.25;;;;;;;2.48;69.96;99249.08;1772103;81;21160;-73
2021/04/05 04:39:11;;;;;;;16.80;8.93;;;;;;;2.53;69.95;99235.80;1772642;80;21180;-73
2021/04/05 04:41:37;;;;;;;22.98;9.68;;;;;;;2.59;69.93;99249.36;1772699;81;21620;-73
2021/04/05 04:44:05;;;;;;;19.95;8.38;;;;;;;2.65;69.94;99243.50;1772729;81;22203;-73
2021/04/05 04:46:31;;;;;;;21.68;9.73;;;;;;;2.70;69.93;99228.11;1772749;80;21167;-73
2021/04/05 04:49:04;;;;;;;23.62;8.93;;;;;;;2.78;69.90;99231.63;1772668;81;21113;-73
2021/04/05 04:51:31;;;;;;;19.52;8.78;;;;;;;2.87;69.89;99224.17;1752239;80;21168;-72
2021/04/05 04:53:58;;;;;;;27.00;9.30;;;;;;;2.99;69.88;99226.91;1752573;81;21625;-73
2021/04/05 04:56:25;;;;;;;22.32;8.63;;;;;;;3.12;69.85;99229.66;1716617;83;21204;-74
2021/04/05 04:59:05;;;;;;;15.78;7.55;;;;;;;3.25;69.81;99232.73;1716492;82;21180;-74
2021/04/05 05:01:33;;;;;;;21.60;9.48;;;;;;;3.36;69.78;99232.01;1716714;82;21200;-73
2021/04/05 05:04:08;;;;;;;22.90;8.45;;;;;;;3.48;69.73;99225.50;1716670;82;21188;-73
2021/04/05 05:06:34;;;;;;;25.70;9.05;;;;;;;3.61;69.68;99219.00;1709870;82;21115;-73
2021/04/05 05:09:03;;;;;;;26.20;10.08;;;;;;;3.69;69.60;99204.08;1706629;84;22062;-74
2021/04/05 05:11:29;;;;;;;23.45;8.70;;;;;;;3.79;69.54;99199.52;1724402;82;21687;-73
2021/04/05 05:13:56;;;;;;;24.95;8.33;;;;;;;3.88;69.45;99195.10;1702338;83;21159;-74
2021/04/05 05:16:24;;;;;;;21.50;8.80;;;;;;;3.97;69.39;99202.09;1702000;84;21183;-73
2021/04/05 05:18:56;;;;;;;18.05;7.78;;;;;;;4.06;69.31;99203.77;1704711;84;21129;-73
2021/04/05 05:21:32;;;;;;;21.27;7.78;;;;;;;4.15;69.25;99190.94;1690785;84;21980;-74
2021/04/05 05:24:07;;;;;;;17.52;8.00;;;;;;;4.25;69.16;99181.59;1730540;82;21124;-74
2021/04/05 05:26:36;;;;;;;21.73;8.33;;;;;;;4.34;69.09;99170.90;1725521;83;21574;-74
2021/04/05 05:29:06;;;;;;;22.02;8.40;;;;;;;4.42;68.97;99163.02;1704880;84;21141;-74
2021/04/05 05:31:41;;;;;;;19.77;7.55;;;;;;;4.47;68.88;99162.02;1735506;82;21597;-74
2021/04/05 05:34:11;;;;;;;20.17;7.92;;;;;;;4.53;68.79;99165.36;1706574;84;22051;-74
2021/04/05 05:36:38;;;;;;;30.02;8.70;;;;;;;4.60;68.70;99157.61;1726478;82;21121;-74
2021/04/05 05:39:05;;;;;;;21.42;8.00;;;;;;;4.69;68.60;99161.07;1717740;82;21170;-73
2021/04/05 05:42:02;;;;;;;26.90;9.33;;;;;;;4.79;68.45;99152.50;1725673;83;21133;-74
2021/04/05 05:44:46;;;;;;;23.27;8.18;;;;;;;4.90;68.34;99149.54;1708042;83;21156;-74
2021/04/05 05:47:41;;;;;;;18.23;8.00;;;;;;;5.05;68.20;99145.26;1724882;83;21269;-74
2021/04/05 05:50:25;;;;;;;26.02;9.90;;;;;;;5.20;68.06;99152.86;1701180;83;21187;-74
2021/04/05 05:53:05;;;;;;;20.70;7.65;;;;;;;5.39;67.86;99155.14;1673238;84;21125;-74
2021/04/05 05:55:52;;;;;;;22.35;8.50;;;;;;;5.54;67.65;99145.53;1709004;83;21195;-74
2021/04/05 05:58:48;;;;;;;21.82;8.30;;;;;;;5.68;67.47;99137.89;1720165;83;21161;-76
2021/04/05 06:01:37;;;;;;;23.02;8.53;;;;;;;5.77;67.27;99135.05;1709396;83;21211;-74
2021/04/05 06:04:36;;;;;;;23.30;7.83;;;;;;;5.84;67.08;99140.50;1691271;83;21201;-75
2021/04/05 06:07:34;;;;;;;21.85;7.47;;;;;;;5.90;66.85;99123.97;1695907;83;21137;-75
2021/04/05 06:10:18;;;;;;;19.35;7.28;;;;;;;5.96;66.62;99117.98;1691412;83;21176;-75
2021/04/05 06:13:14;;;;;;;26.60;8.58;;;;;;;5.98;66.39;99110.72;1766415;81;21113;-74
2021/04/05 06:16:05;;;;;;;25.12;7.58;;;;;;;6.01;66.15;99109.05;1764840;81;21337;-74
2021/04/05 06:19:02;;;;;;;18.48;7.37;;;;;;;6.01;65.96;99105.08;1765567;81;21168;-75
2021/04/05 06:21:48;;;;;;;21.10;7.45;;;;;;;6.02;65.77;99110.67;1758324;81;21144;-75
2021/04/05 06:24:47;;;;;;;19.57;8.00;;;;;;;6.01;65.57;99090.52;1749177;80;21179;-75
2021/04/05 06:27:28;;;;;;;25.50;8.33;;;;;;;6.01;65.29;99079.44;1785885;79;21128;-75
2021/04/05 06:30:05;;;;;;;21.82;8.58;;;;;;;6.01;65.07;99065.39;1757142;80;22137;-74
2021/04/05 06:32:45;;;;;;;29.90;13.65;;;;;;;6.02;64.85;99056.42;1753051;80;21609;-74
2021/04/05 06:35:24;;;;;;;;;;;;;;;6.05;64.57;99039.40;1787597;79;21147;-75
2021/04/05 06:37:57;;;;;;;16.23;9.03;;;;;;;6.08;64.37;99034.58;1785884;80;20274;-75
2021/04/05 06:40:27;;;;;;;22.05;9.35;;;;;;;6.11;63.99;99036.05;1785863;79;21108;-75
2021/04/05 06:43:18;;;;;;;18.80;7.55;;;;;;;6.14;63.78;99041.81;1785810;80;21233;-75
2021/04/05 06:46:32;;;;;;;23.45;8.53;;;;;;;6.18;63.55;99022.44;1777264;80;21509;-75
2021/04/05 06:49:18;;;;;;;19.90;10.78;;;;;;;6.21;63.30;99005.70;1755379;81;21191;-75
2021/04/05 06:52:10;;;;;;;27.85;15.63;;;;;;;6.25;63.12;99022.89;1735708;81;21133;-75
2021/04/05 06:54:56;;;;;;;24.05;11.73;;;;;;;6.30;63.02;99005.95;1767015;80;21553;-74
2021/04/05 06:57:34;;;;;;;23.00;10.23;;;;;;;6.33;62.92;98994.21;1766561;81;22180;-74
2021/04/05 07:00:16;;;;;;;18.30;7.55;;;;;;;6.37;62.75;98976.45;1721235;81;21223;-74
2021/04/05 07:02:57;;;;;;;17.42;7.47;;;;;;;6.41;62.52;98966.33;1692878;82;21570;-74
2021/04/05 07:05:47;;;;;;;38.73;15.38;;;;;;;6.45;62.32;98972.91;1736486;82;21108;-74
2021/04/05 07:08:42;;;;;;;26.80;12.13;;;;;;;6.51;62.07;98967.72;1745723;81;21160;-74
2021/04/05 07:11:25;;;;;;;21.68;10.48;;;;;;;6.59;61.81;98974.78;1765639;79;21218;-74
2021/04/05 07:14:31;;;;;;;26.07;10.20;;;;;;;6.69;61.56;98969.22;1723285;82;21132;-74
2021/04/05 07:17:19;;;;;;;20.37;9.30;;;;;;;6.79;61.32;98972.45;1732632;82;21158;-74
2021/04/05 07:20:09;;;;;;;20.43;10.68;;;;;;;6.91;61.18;98982.42;1705460;83;21176;-74
2021/04/05 07:23:09;;;;;;;19.05;8.20;;;;;;;7.04;61.06;98979.13;1702780;84;21126;-74
2021/04/05 07:25:59;;;;;;;22.43;8.97;;;;;;;7.11;60.86;98960.69;1645205;84;21286;-74
2021/04/05 07:28:30;;;;;;;20.43;8.63;;;;;;;7.13;60.66;98951.55;1703977;83;21189;-74
2021/04/05 07:31:24;;;;;;;21.87;8.13;;;;;;;7.16;60.31;98939.74;1698284;83;21133;-74
2021/04/05 07:33:50;;;;;;;18.52;8.63;;;;;;;7.20;60.04;98940.52;1696139;84;21201;-74
2021/04/05 07:36:58;;;;;;;21.87;7.92;;;;;;;7.27;59.83;98934.80;1663402;84;21169;-74
2021/04/05 07:39:34;;;;;;;19.02;8.85;;;;;;;7.33;59.62;98942.02;1714713;83;21272;-75
2021/04/05 07:42:32;;;;;;;19.85;8.43;;;;;;;7.43;59.33;98921.82;1721386;83;21184;-75
2021/04/05 07:45:09;;;;;;;16.65;8.25;;;;;;;7.44;59.07;98912.37;1719521;83;21219;-75
2021/04/05 07:47:47;;;;;;;19.45;9.00;;;;;;;7.45;58.79;98895.45;1724965;82;21152;-75
2021/04/05 07:50:24;;;;;;;21.48;9.03;;;;;;;7.52;58.63;98902.16;1723715;83;21145;-75
2021/04/05 07:53:25;;;;;;;18.85;8.03;;;;;;;7.62;58.48;98889.91;1725230;82;22248;-75
2021/04/05 07:55:52;;;;;;;19.30;9.08;;;;;;;7.71;58.30;98902.03;1722024;83;21160;-75
2021/04/05 07:58:33;;;;;;;16.42;7.35;;;;;;;7.84;58.14;98888.92;1691288;84;21157;-75
2021/04/05 08:01:25;;;;;;;18.90;8.85;;;;;;;7.94;57.97;98881.46;1706595;83;21830;-75
2021/04/05 08:04:12;;;;;;;22.50;8.70;;;;;;;7.96;57.70;98887.39;1676013;84;21242;-75
2021/04/05 08:06:53;;;;;;;19.00;7.70;;;;;;;7.99;57.47;98891.81;1641731;84;21151;-76
2021/04/05 08:09:24;;;;;;;21.60;8.35;;;;;;;8.06;57.36;98881.78;1717803;83;21641;-75
2021/04/05 08:12:23;;;;;;;35.10;12.70;;;;;;;8.09;57.19;98872.09;1741035;81;21129;-75
2021/04/05 08:15:00;;;;;;;21.62;8.23;;;;;;;8.13;57.04;98862.21;1715848;83;21153;-75
2021/04/05 08:17:57;;;;;;;23.65;8.95;;;;;;;8.21;56.83;98861.25;1715843;82;21137;-75
2021/04/05 08:20:51;;;;;;;20.55;9.25;;;;;;;8.26;56.65;98854.88;1715966;82;21202;-75
2021/04/05 08:23:39;;;;;;;23.40;11.48;;;;;;;8.28;56.37;98860.80;1733031;81;21128;-75
2021/04/05 08:26:40;;;;;;;24.70;12.37;;;;;;;8.34;56.22;98859.55;1756893;81;21137;-75
2021/04/05 08:29:43;;;;;;;28.38;10.88;;;;;;;8.44;56.04;98849.40;1730061;81;21112;-75
2021/04/05 08:32:26;;;;;;;23.75;10.72;;;;;;;8.56;55.81;98834.25;1721177;81;21179;-74
2021/04/05 08:35:26;;;;;;;19.52;8.70;;;;;;;8.70;55.65;98840.78;1748900;81;23083;-75
2021/04/05 08:38:27;;;;;;;15.72;7.87;;;;;;;8.79;55.57;98810.38;1748100;81;21204;-74
2021/04/05 08:41:13;;;;;;;24.85;9.90;;;;;;;8.91;55.36;98801.31;1738607;81;21145;-74
2021/04/05 08:44:03;;;;;;;16.52;9.98;;;;;;;9.02;55.12;98792.77;1742778;82;21175;-73
2021/04/05 08:46:32;;;;;;;21.15;9.20;;;;;;;9.14;54.97;98792.52;1735301;82;21640;-74
2021/04/05 08:49:01;;;;;;;23.52;13.90;;;;;;;9.19;54.65;98784.74;1742223;82;21273;-74
2021/04/05 08:51:36;;;;;;;20.95;10.82;;;;;;;9.13;54.21;98784.22;1748859;81;21213;-74
2021/04/05 08:54:05;;;;;;;25.30;10.32;;;;;;;9.07;54.06;98774.91;1748864;81;21132;-74
2021/04/05 08:56:36;;;;;;;20.97;9.30;;;;;;;9.04;53.99;98770.81;1744871;81;21588;-74
2021/04/05 08:59:08;;;;;;;18.45;9.38;;;;;;;9.03;53.87;98771.82;1743016;80;21245;-74
2021/04/05 09:01:42;;;;;;;22.95;10.38;;;;;;;9.03;53.83;98762.01;1756637;81;21257;-74
2021/04/05 09:04:09;;;;;;;24.47;10.43;;;;;;;9.05;53.74;98757.80;1765705;81;21658;-74
2021/04/05 09:06:38;;;;;;;26.90;14.30;;;;;;;9.09;53.71;98750.24;1757342;81;21167;-74
2021/04/05 09:09:05;;;;;;;21.60;8.75;;;;;;;9.14;53.68;98757.95;1723584;81;21152;-74
2021/04/05 09:11:35;;;;;;;29.02;16.30;;;;;;;9.18;53.55;98753.88;1747630;81;21226;-74
2021/04/05 09:14:02;;;;;;;21.00;9.33;;;;;;;9.20;53.50;98749.16;1720137;81;21178;-74
2021/04/05 09:16:49;;;;;;;18.30;8.70;;;;;;;9.21;53.41;98754.80;1726260;82;21192;-74
2021/04/05 09:19:38;;;;;;;20.37;8.18;;;;;;;9.30;53.34;98739.45;1726216;82;21578;-74
2021/04/05 09:22:24;;;;;;;23.47;8.08;;;;;;;9.34;53.18;98734.86;1768983;81;21232;-74
2021/04/05 09:25:11;;;;;;;21.42;8.55;;;;;;;9.38;53.01;98740.09;1757650;81;21138;-74
2021/04/05 09:28:18;;;;;;;20.60;9.68;;;;;;;9.56;53.02;98741.33;1739055;82;21204;-73
2021/04/05 09:31:30;;;;;;;20.25;9.70;;;;;;;9.75;52.83;98741.31;1752398;81;21160;-73
2021/04/05 09:34:34;;;;;;;23.27;9.20;;;;;;;9.76;52.69;98750.13;1718436;83;21691;-74
2021/04/05 09:37:39;;;;;;;23.40;9.88;;;;;;;9.74;52.51;98749.53;1725056;82;21192;-74
2021/04/05 09:40:31;;;;;;;22.73;8.90;;;;;;;9.73;52.36;98750.03;1758798;81;21168;-74
2021/04/05 09:43:43;;;;;;;15.48;8.33;;;;;;;9.76;52.28;98748.80;1675425;84;21591;-74
2021/04/05 09:47:03;;;;;;;21.48;9.20;;;;;;;9.76;52.19;98745.63;1713035;83;21157;-74
2021/04/05 09:49:55;;;;;;;22.13;10.38;;;;;;;9.79;52.05;98743.88;1707878;84;21190;-75
2021/04/05 09:52:41;;;;;;;28.00;10.00;;;;;;;9.85;52.06;98735.61;1726328;83;21185;-75
2021/04/05 09:55:13;;;;;;;19.40;9.98;;;;;;;9.90;52.02;98735.78;1740437;81;21171;-75
2021/04/05 09:57:59;;;;;;;25.57;12.40;;;;;;;9.87;52.05;98734.88;1751938;81;21258;-75
2021/04/05 10:00:26;;;;;;;18.85;9.00;;;;;;;9.83;51.98;98741.63;1731029;81;21227;-74
2021/04/05 10:02:56;;;;;;;23.12;9.58;;;;;;;9.81;52.01;98742.36;1724777;81;21137;-74
2021/04/05 10:05:24;;;;;;;;;;;;;;;9.71;51.93;98742.75;1757424;81;21189;-75
2021/04/05 10:07:51;;;;;;;19.32;10.30;;;;;;;9.64;51.96;98739.80;1693752;83;20291;-75
2021/04/05 10:10:18;;;;;;;24.02;9.30;;;;;;;9.63;52.02;98724.84;1758697;81;21196;-75
2021/04/05 10:12:46;;;;;;;19.37;9.55;;;;;;;9.57;51.96;98718.48;1718154;83;21179;-75
2021/04/05 10:15:18;;;;;;;26.50;10.25;;;;;;;9.56;52.03;98718.70;1717256;83;21621;-75
2021/04/05 10:17:54;;;;;;;18.12;9.55;;;;;;;9.60;52.08;98706.63;1762072;81;21192;-75
2021/04/05 10:20:24;;;;;;;21.75;10.75;;;;;;;9.73;52.13;98698.64;1753568;81;21181;-76
2021/04/05 10:22:51;;;;;;;17.30;9.73;;;;;;;9.88;52.20;98691.26;1760834;80;21280;-75
2021/04/05 10:25:21;;;;;;;18.80;9.55;;;;;;;10.01;52.18;98688.56;1781579;78;21155;-75
2021/04/05 10:27:51;;;;;;;;;;;;;;;10.11;52.19;98683.62;1751241;81;21621;-76
2021/04/05 10:30:19;;;;;;;22.32;10.32;;;;;;;10.08;52.04;98676.05;1743902;81;20868;-76
2021/04/05 10:32:45;;;;;;;21.25;10.28;;;;;;;10.01;51.91;98668.59;1727852;82;21157;-75
2021/04/05 10:35:14;;;;;;;25.05;10.63;;;;;;;9.89;51.88;98666.25;1715462;83;22245;-75
2021/04/05 10:37:43;;;;;;;24.67;10.90;;;;;;;9.85;51.93;98667.72;1689699;83;21209;-75
2021/04/05 10:40:11;;;;;;;;;;;;;;;9.83;51.88;98655.92;1757055;81;21154;-76
2021/04/05 10:42:48;;;;;;;21.40;9.93;;;;;;;9.81;51.89;98654.00;1748121;81;20288;-76
2021/04/05 10:45:23;;;;;;;26.10;10.03;;;;;;;9.81;51.90;98657.17;1752911;81;21149;-75
2021/04/05 10:48:08;;;;;;;25.68;10.65;;;;;;;9.81;51.97;98663.83;1739427;80;21184;-75
2021/04/05 10:50:40;;;;;;;19.95;9.70;;;;;;;9.81;52.05;98643.86;1743287;81;21148;-76
2021/04/05 10:53:12;;;;;;;21.65;10.18;;;;;;;9.80;52.12;98651.53;1784549;80;21163;-75
2021/04/05 10:55:42;;;;;;;20.45;9.75;;;;;;;9.77;52.14;98638.64;1785019;80;21664;-76
2021/04/05 10:58:10;;;;;;;22.35;11.05;;;;;;;9.70;52.19;98654.63;1782882;80;21147;-75
2021/04/05 11:00:39;;;;;;;24.37;11.63;;;;;;;9.65;52.26;98653.59;1748109;81;21247;-76
2021/04/05 11:03:15;;;;;;;28.17;12.23;;;;;;;9.61;52.38;98644.37;1785861;80;21155;-76
2021/04/05 11:05:43;;;;;;;27.17;13.72;;;;;;;9.59;52.46;98641.12;1749446;81;21184;-76
2021/04/05 11:08:09;;;;;;;23.85;11.05;;;;;;;9.53;52.74;98643.56;1718236;81;21185;-76
2021/04/05 11:10:37;;;;;;;25.43;11.28;;;;;;;9.33;53.18;98664.05;1718195;83;21527;-76
2021/04/05 11:13:10;;;;;;;34.58;17.05;;;;;;;9.13;53.70;98662.40;1731180;81;21249;-76
2021/04/05 11:15:39;;;;;;;40.63;16.50;;;;;;;8.93;54.55;98661.88;1775101;80;21602;-75
2021/04/05 11:18:06;;;;;;;26.55;13.78;;;;;;;8.72;55.14;98681.14;1741591;80;21196;-75
2021/04/05 11:20:35;;;;;;;27.82;12.55;;;;;;;8.51;55.64;98690.86;1770403;80;21140;-76
2021/04/05 11:23:14;;;;;;;31.17;12.45;;;;;;;8.35;56.34;98696.53;1767410;80;21239;-76
2021/04/05 11:25:45;;;;;;;29.77;13.60;;;;;;;7.97;57.69;98696.09;1754876;80;21215;-75
2021/04/05 11:28:28;;;;;;;31.52;13.25;;;;;;;7.67;58.76;98707.91;1757855;80;21730;-75
2021/04/05 11:31:07;;;;;;;61.70;25.75;;;;;;;7.50;59.48;98704.73;1724155;81;21135;-75
2021/04/05 11:33:35;;;;;;;31.35;14.03;;;;;;;7.38;60.31;98711.58;1753146;80;21609;-76
2021/04/05 11:36:04;;;;;;;29.30;13.95;;;;;;;7.21;61.33;98723.95;1782744;80;21175;-76
2021/04/05 11:38:30;;;;;;;41.08;19.85;;;;;;;7.07;62.07;98717.71;1784347;80;21274;-76
2021/04/05 11:41:04;;;;;;;33.95;16.42;;;;;;;6.99;62.69;98726.59;1779621;80;21188;-76
2021/04/05 11:43:35;;;;;;;36.33;15.50;;;;;;;6.92;63.37;98724.88;1774737;80;21211;-75
2021/04/05 11:46:04;;;;;;;;;;;;;;;6.80;64.01;98725.04;1750848;81;21164;-74
2021/04/05 11:48:30;;;;;;;40.50;17.20;;;;;;;6.72;64.62;98729.14;1755045;81;20546;-75
2021/04/05 11:50:57;;;;;;;34.50;19.00;;;;;;;6.61;65.16;98727.80;1731944;82;21207;-75
2021/04/05 11:53:48;;;;;;;48.65;24.12;;;;;;;6.58;65.68;98722.84;1737922;82;21140;-75
2021/04/05 11:56:29;;;;;;;37.93;18.75;;;;;;;6.58;65.98;98726.81;1745359;81;21672;-75
2021/04/05 11:59:20;;;;;;;37.80;19.60;;;;;;;6.48;66.53;98722.31;1775869;80;21794;-74
2021/04/05 12:01:59;;;;;;;37.75;18.02;;;;;;;6.39;67.00;98720.30;1783954;80;21159;-74
2021/04/05 12:04:43;;;;;;;25.10;13.68;;;;;;;6.36;67.44;98721.99;1785881;80;21253;-74
2021/04/05 12:07:12;;;;;;;44.50;23.50;;;;;;;6.28;67.90;98723.41;1756464;81;21188;-75
2021/04/05 12:09:43;;;;;;;54.08;25.95;;;;;;;6.20;68.26;98725.31;1760325;81;21739;-74